logo
Search for airport 
image banner adimage banner adimage banner ad
image banner ad

WARD - Pasuruan/Raci

Located in , Indonesia

ICAO - , IATA -

Data provided by Airmate  

General information

Coordinates: S7°37'60" E112°51'0"
Elevation is 57 feet MSL.
 
View others Airports in Jawa Timur

Operational data

Special qualification required
Current time UTC:
Current local time:
Weather at : WARR - Surabaya/Juanda ( 29 km )
METAR: WARR 152200Z 27002KT 8000 SCT020 26/26 Q1010 NOSIG
TAF: TAF WARR 151700Z 1518/1618 25003KT 8000 SCT020 PROB40 TEMPO 1518/1520 4000 RA FEW018CB BKN020 BECMG 1520/1522 5000 HZ BECMG 1600/1602 07010KT 9999 NSW FEW020
View NOTAMs / SUP AIP / TFR affecting this airport [VIEW]
Communications frequencies: [VIEW]

Runways:

Airport contact information

Address: Indonesia

Satellite view of WARD